sensor_id;sensor_type;location;lat;lon;timestamp;P1;durP1;ratioP1;P2;durP2;ratioP2
49834;SDS011;35729;52.090;13.162;2023-05-10T00:00:13;7.50;;;4.70;;
49834;SDS011;35729;52.090;13.162;2023-05-10T00:02:42;11.35;;;4.72;;
49834;SDS011;35729;52.090;13.162;2023-05-10T00:05:14;6.38;;;4.38;;
49834;SDS011;35729;52.090;13.162;2023-05-10T00:07:42;7.35;;;4.95;;
49834;SDS011;35729;52.090;13.162;2023-05-10T00:10:11;8.02;;;4.80;;
49834;SDS011;35729;52.090;13.162;2023-05-10T00:12:39;6.95;;;4.90;;
49834;SDS011;35729;52.090;13.162;2023-05-10T00:15:08;5.75;;;4.78;;
49834;SDS011;35729;52.090;13.162;2023-05-10T00:17:37;8.27;;;4.80;;
49834;SDS011;35729;52.090;13.162;2023-05-10T00:20:06;5.55;;;4.75;;
49834;SDS011;35729;52.090;13.162;2023-05-10T00:22:38;9.23;;;5.22;;
49834;SDS011;35729;52.090;13.162;2023-05-10T00:25:07;6.00;;;5.22;;
49834;SDS011;35729;52.090;13.162;2023-05-10T00:27:36;8.68;;;5.43;;
49834;SDS011;35729;52.090;13.162;2023-05-10T00:30:05;7.75;;;5.25;;
49834;SDS011;35729;52.090;13.162;2023-05-10T00:32:35;7.90;;;5.15;;
49834;SDS011;35729;52.090;13.162;2023-05-10T00:35:04;6.55;;;5.10;;
49834;SDS011;35729;52.090;13.162;2023-05-10T00:37:33;6.00;;;4.95;;
49834;SDS011;35729;52.090;13.162;2023-05-10T00:40:04;7.47;;;4.78;;
49834;SDS011;35729;52.090;13.162;2023-05-10T00:42:34;6.50;;;5.07;;
49834;SDS011;35729;52.090;13.162;2023-05-10T00:45:02;7.20;;;5.47;;
49834;SDS011;35729;52.090;13.162;2023-05-10T00:47:32;7.85;;;5.20;;
49834;SDS011;35729;52.090;13.162;2023-05-10T00:50:01;5.25;;;4.70;;
49834;SDS011;35729;52.090;13.162;2023-05-10T00:52:30;7.05;;;5.25;;
49834;SDS011;35729;52.090;13.162;2023-05-10T00:54:58;6.00;;;5.28;;
49834;SDS011;35729;52.090;13.162;2023-05-10T00:57:31;6.43;;;5.10;;
49834;SDS011;35729;52.090;13.162;2023-05-10T00:59:59;7.38;;;5.10;;
49834;SDS011;35729;52.090;13.162;2023-05-10T01:02:29;8.65;;;5.28;;
49834;SDS011;35729;52.090;13.162;2023-05-10T01:04:57;6.45;;;5.30;;
49834;SDS011;35729;52.090;13.162;2023-05-10T01:07:26;7.10;;;5.35;;
49834;SDS011;35729;52.090;13.162;2023-05-10T01:09:55;5.40;;;4.82;;
49834;SDS011;35729;52.090;13.162;2023-05-10T01:12:24;6.88;;;5.38;;
49834;SDS011;35729;52.090;13.162;2023-05-10T01:15:08;5.28;;;4.75;;
49834;SDS011;35729;52.090;13.162;2023-05-10T01:17:39;8.03;;;5.60;;
49834;SDS011;35729;52.090;13.162;2023-05-10T01:20:10;5.43;;;4.93;;
49834;SDS011;35729;52.090;13.162;2023-05-10T01:22:44;6.75;;;5.32;;
49834;SDS011;35729;52.090;13.162;2023-05-10T01:25:35;5.85;;;4.75;;
49834;SDS011;35729;52.090;13.162;2023-05-10T01:34:23;6.00;;;5.07;;
49834;SDS011;35729;52.090;13.162;2023-05-10T01:36:57;6.80;;;5.30;;
49834;SDS011;35729;52.090;13.162;2023-05-10T01:39:32;7.57;;;5.72;;
49834;SDS011;35729;52.090;13.162;2023-05-10T01:42:06;8.55;;;5.63;;
49834;SDS011;35729;52.090;13.162;2023-05-10T01:44:39;5.85;;;5.25;;
49834;SDS011;35729;52.090;13.162;2023-05-10T01:49:47;5.63;;;5.05;;
49834;SDS011;35729;52.090;13.162;2023-05-10T01:52:19;5.75;;;4.95;;
49834;SDS011;35729;52.090;13.162;2023-05-10T01:54:55;8.63;;;5.68;;
49834;SDS011;35729;52.090;13.162;2023-05-10T01:57:33;6.55;;;5.72;;
49834;SDS011;35729;52.090;13.162;2023-05-10T02:00:05;6.65;;;5.43;;
49834;SDS011;35729;52.090;13.162;2023-05-10T02:02:37;8.15;;;5.15;;
49834;SDS011;35729;52.090;13.162;2023-05-10T02:05:11;8.68;;;5.55;;
49834;SDS011;35729;52.090;13.162;2023-05-10T02:07:40;7.57;;;5.28;;
49834;SDS011;35729;52.090;13.162;2023-05-10T02:10:10;7.72;;;5.55;;
49834;SDS011;35729;52.090;13.162;2023-05-10T02:12:46;7.25;;;5.90;;
49834;SDS011;35729;52.090;13.162;2023-05-10T02:15:18;7.63;;;5.57;;
49834;SDS011;35729;52.090;13.162;2023-05-10T02:17:48;8.13;;;5.47;;
49834;SDS011;35729;52.090;13.162;2023-05-10T02:20:27;7.50;;;6.00;;
49834;SDS011;35729;52.090;13.162;2023-05-10T02:22:57;7.88;;;5.65;;
49834;SDS011;35729;52.090;13.162;2023-05-10T02:25:26;7.50;;;5.57;;
49834;SDS011;35729;52.090;13.162;2023-05-10T02:27:56;10.52;;;5.78;;
49834;SDS011;35729;52.090;13.162;2023-05-10T02:30:25;7.72;;;5.68;;
49834;SDS011;35729;52.090;13.162;2023-05-10T02:32:55;6.95;;;5.38;;
49834;SDS011;35729;52.090;13.162;2023-05-10T02:35:27;6.47;;;5.15;;
49834;SDS011;35729;52.090;13.162;2023-05-10T02:37:56;6.00;;;5.20;;
49834;SDS011;35729;52.090;13.162;2023-05-10T02:40:26;7.80;;;5.57;;
49834;SDS011;35729;52.090;13.162;2023-05-10T02:42:56;7.28;;;6.25;;
49834;SDS011;35729;52.090;13.162;2023-05-10T02:45:27;5.93;;;5.32;;
49834;SDS011;35729;52.090;13.162;2023-05-10T02:47:59;7.03;;;5.75;;
49834;SDS011;35729;52.090;13.162;2023-05-10T02:50:30;6.63;;;5.53;;
49834;SDS011;35729;52.090;13.162;2023-05-10T02:53:01;7.57;;;6.28;;
49834;SDS011;35729;52.090;13.162;2023-05-10T02:55:39;7.38;;;5.97;;
49834;SDS011;35729;52.090;13.162;2023-05-10T02:58:09;8.55;;;5.95;;
49834;SDS011;35729;52.090;13.162;2023-05-10T03:00:37;6.10;;;5.05;;
49834;SDS011;35729;52.090;13.162;2023-05-10T03:03:06;6.85;;;5.55;;
49834;SDS011;35729;52.090;13.162;2023-05-10T03:05:37;6.30;;;5.60;;
49834;SDS011;35729;52.090;13.162;2023-05-10T03:08:05;7.43;;;5.55;;
49834;SDS011;35729;52.090;13.162;2023-05-10T03:10:37;8.25;;;5.88;;
49834;SDS011;35729;52.090;13.162;2023-05-10T03:13:12;7.55;;;5.82;;
49834;SDS011;35729;52.090;13.162;2023-05-10T03:15:54;5.95;;;5.18;;
49834;SDS011;35729;52.090;13.162;2023-05-10T03:18:28;6.85;;;5.75;;
49834;SDS011;35729;52.090;13.162;2023-05-10T03:21:04;6.05;;;5.45;;
49834;SDS011;35729;52.090;13.162;2023-05-10T03:23:41;6.40;;;5.57;;
49834;SDS011;35729;52.090;13.162;2023-05-10T03:26:12;6.93;;;5.22;;
49834;SDS011;35729;52.090;13.162;2023-05-10T03:28:45;9.57;;;5.88;;
49834;SDS011;35729;52.090;13.162;2023-05-10T03:31:16;7.88;;;6.50;;
49834;SDS011;35729;52.090;13.162;2023-05-10T03:33:45;6.57;;;5.85;;
49834;SDS011;35729;52.090;13.162;2023-05-10T03:36:17;9.65;;;6.15;;
49834;SDS011;35729;52.090;13.162;2023-05-10T03:38:46;8.52;;;6.18;;
49834;SDS011;35729;52.090;13.162;2023-05-10T03:41:15;8.45;;;6.28;;
49834;SDS011;35729;52.090;13.162;2023-05-10T03:43:43;8.25;;;5.78;;
49834;SDS011;35729;52.090;13.162;2023-05-10T03:46:12;8.40;;;6.03;;
49834;SDS011;35729;52.090;13.162;2023-05-10T03:48:40;9.02;;;6.35;;
49834;SDS011;35729;52.090;13.162;2023-05-10T03:51:08;7.82;;;6.07;;
49834;SDS011;35729;52.090;13.162;2023-05-10T03:53:39;9.48;;;6.32;;
49834;SDS011;35729;52.090;13.162;2023-05-10T03:56:08;6.85;;;6.07;;
49834;SDS011;35729;52.090;13.162;2023-05-10T03:58:36;6.63;;;5.60;;
49834;SDS011;35729;52.090;13.162;2023-05-10T04:01:05;8.63;;;5.78;;
49834;SDS011;35729;52.090;13.162;2023-05-10T04:03:33;7.57;;;5.90;;
49834;SDS011;35729;52.090;13.162;2023-05-10T04:06:03;8.88;;;6.45;;
49834;SDS011;35729;52.090;13.162;2023-05-10T04:08:34;7.78;;;5.38;;
49834;SDS011;35729;52.090;13.162;2023-05-10T04:11:08;8.80;;;5.32;;
49834;SDS011;35729;52.090;13.162;2023-05-10T04:13:38;7.70;;;5.90;;
49834;SDS011;35729;52.090;13.162;2023-05-10T04:16:08;8.63;;;5.72;;
49834;SDS011;35729;52.090;13.162;2023-05-10T04:18:36;7.15;;;6.22;;
49834;SDS011;35729;52.090;13.162;2023-05-10T04:21:10;10.07;;;6.35;;
49834;SDS011;35729;52.090;13.162;2023-05-10T04:23:39;7.28;;;5.82;;
49834;SDS011;35729;52.090;13.162;2023-05-10T04:26:10;6.90;;;5.72;;
49834;SDS011;35729;52.090;13.162;2023-05-10T04:28:39;6.15;;;5.32;;
49834;SDS011;35729;52.090;13.162;2023-05-10T04:31:08;9.18;;;6.45;;
49834;SDS011;35729;52.090;13.162;2023-05-10T04:33:37;43.40;;;25.05;;
49834;SDS011;35729;52.090;13.162;2023-05-10T04:36:06;22.00;;;13.70;;
49834;SDS011;35729;52.090;13.162;2023-05-10T04:38:35;12.40;;;8.13;;
49834;SDS011;35729;52.090;13.162;2023-05-10T04:41:04;9.13;;;6.63;;
49834;SDS011;35729;52.090;13.162;2023-05-10T04:43:36;8.18;;;6.70;;
49834;SDS011;35729;52.090;13.162;2023-05-10T04:46:05;7.93;;;6.10;;
49834;SDS011;35729;52.090;13.162;2023-05-10T04:48:34;10.00;;;6.47;;
49834;SDS011;35729;52.090;13.162;2023-05-10T04:51:03;6.38;;;5.65;;
49834;SDS011;35729;52.090;13.162;2023-05-10T04:53:31;9.68;;;5.93;;
49834;SDS011;35729;52.090;13.162;2023-05-10T04:56:00;6.93;;;5.43;;
49834;SDS011;35729;52.090;13.162;2023-05-10T04:58:28;11.05;;;5.75;;
49834;SDS011;35729;52.090;13.162;2023-05-10T05:01:03;8.15;;;5.40;;
49834;SDS011;35729;52.090;13.162;2023-05-10T05:03:33;7.40;;;5.95;;
49834;SDS011;35729;52.090;13.162;2023-05-10T05:06:01;7.30;;;5.55;;
49834;SDS011;35729;52.090;13.162;2023-05-10T05:08:30;9.40;;;6.25;;
49834;SDS011;35729;52.090;13.162;2023-05-10T05:10:59;7.78;;;5.97;;
49834;SDS011;35729;52.090;13.162;2023-05-10T05:13:27;6.18;;;5.53;;
49834;SDS011;35729;52.090;13.162;2023-05-10T05:15:56;7.43;;;5.78;;
49834;SDS011;35729;52.090;13.162;2023-05-10T05:18:27;7.53;;;5.28;;
49834;SDS011;35729;52.090;13.162;2023-05-10T05:20:55;8.15;;;5.05;;
49834;SDS011;35729;52.090;13.162;2023-05-10T05:23:24;7.00;;;5.30;;
49834;SDS011;35729;52.090;13.162;2023-05-10T05:25:52;8.27;;;4.70;;
49834;SDS011;35729;52.090;13.162;2023-05-10T05:28:21;6.40;;;5.03;;
49834;SDS011;35729;52.090;13.162;2023-05-10T05:30:50;8.77;;;4.72;;
49834;SDS011;35729;52.090;13.162;2023-05-10T05:33:18;7.18;;;4.57;;
49834;SDS011;35729;52.090;13.162;2023-05-10T05:35:49;4.50;;;3.97;;
49834;SDS011;35729;52.090;13.162;2023-05-10T05:38:17;4.88;;;3.95;;
49834;SDS011;35729;52.090;13.162;2023-05-10T05:40:46;7.88;;;4.80;;
49834;SDS011;35729;52.090;13.162;2023-05-10T05:43:14;8.07;;;4.35;;
49834;SDS011;35729;52.090;13.162;2023-05-10T05:45:43;5.53;;;3.63;;
49834;SDS011;35729;52.090;13.162;2023-05-10T05:48:11;4.82;;;3.83;;
49834;SDS011;35729;52.090;13.162;2023-05-10T05:50:40;5.18;;;3.92;;
49834;SDS011;35729;52.090;13.162;2023-05-10T05:53:11;5.82;;;3.92;;
49834;SDS011;35729;52.090;13.162;2023-05-10T05:55:39;4.38;;;3.70;;
49834;SDS011;35729;52.090;13.162;2023-05-10T05:58:08;6.38;;;3.88;;
49834;SDS011;35729;52.090;13.162;2023-05-10T06:00:37;6.75;;;4.13;;
49834;SDS011;35729;52.090;13.162;2023-05-10T06:03:05;5.20;;;3.60;;
49834;SDS011;35729;52.090;13.162;2023-05-10T06:05:33;8.18;;;3.53;;
49834;SDS011;35729;52.090;13.162;2023-05-10T06:08:02;6.35;;;3.20;;
49834;SDS011;35729;52.090;13.162;2023-05-10T06:10:33;8.10;;;3.83;;
49834;SDS011;35729;52.090;13.162;2023-05-10T06:13:02;6.03;;;3.03;;
49834;SDS011;35729;52.090;13.162;2023-05-10T06:15:30;4.15;;;2.95;;
49834;SDS011;35729;52.090;13.162;2023-05-10T06:17:59;4.47;;;2.90;;
49834;SDS011;35729;52.090;13.162;2023-05-10T06:20:28;3.97;;;2.90;;
49834;SDS011;35729;52.090;13.162;2023-05-10T06:22:56;5.05;;;3.38;;
49834;SDS011;35729;52.090;13.162;2023-05-10T06:25:25;5.85;;;2.88;;
49834;SDS011;35729;52.090;13.162;2023-05-10T06:27:56;4.57;;;2.80;;
49834;SDS011;35729;52.090;13.162;2023-05-10T06:30:25;5.93;;;3.22;;
49834;SDS011;35729;52.090;13.162;2023-05-10T06:32:53;5.10;;;3.53;;
49834;SDS011;35729;52.090;13.162;2023-05-10T06:35:22;5.30;;;3.40;;
49834;SDS011;35729;52.090;13.162;2023-05-10T06:37:51;4.95;;;3.28;;
49834;SDS011;35729;52.090;13.162;2023-05-10T06:40:42;3.92;;;2.72;;
49834;SDS011;35729;52.090;13.162;2023-05-10T06:43:13;4.50;;;2.55;;
49834;SDS011;35729;52.090;13.162;2023-05-10T06:45:41;5.20;;;2.75;;
49834;SDS011;35729;52.090;13.162;2023-05-10T06:48:10;7.45;;;2.90;;
49834;SDS011;35729;52.090;13.162;2023-05-10T06:50:38;7.60;;;3.40;;
49834;SDS011;35729;52.090;13.162;2023-05-10T06:53:07;9.55;;;3.30;;
49834;SDS011;35729;52.090;13.162;2023-05-10T06:55:36;4.18;;;3.20;;
49834;SDS011;35729;52.090;13.162;2023-05-10T06:58:05;6.60;;;3.40;;
49834;SDS011;35729;52.090;13.162;2023-05-10T07:00:36;4.22;;;3.22;;
49834;SDS011;35729;52.090;13.162;2023-05-10T07:03:08;3.30;;;2.88;;
49834;SDS011;35729;52.090;13.162;2023-05-10T07:05:37;2.90;;;2.60;;
49834;SDS011;35729;52.090;13.162;2023-05-10T07:08:05;4.07;;;2.78;;
49834;SDS011;35729;52.090;13.162;2023-05-10T07:10:34;5.85;;;3.55;;
49834;SDS011;35729;52.090;13.162;2023-05-10T07:13:02;7.55;;;6.13;;
49834;SDS011;35729;52.090;13.162;2023-05-10T07:15:40;5.97;;;3.25;;
49834;SDS011;35729;52.090;13.162;2023-05-10T07:18:08;6.47;;;4.90;;
49834;SDS011;35729;52.090;13.162;2023-05-10T07:20:37;4.78;;;3.03;;
49834;SDS011;35729;52.090;13.162;2023-05-10T07:23:05;9.27;;;3.67;;
49834;SDS011;35729;52.090;13.162;2023-05-10T07:25:34;6.70;;;2.90;;
49834;SDS011;35729;52.090;13.162;2023-05-10T07:28:03;5.47;;;3.35;;
49834;SDS011;35729;52.090;13.162;2023-05-10T07:30:31;3.85;;;2.88;;
49834;SDS011;35729;52.090;13.162;2023-05-10T07:33:02;4.93;;;2.78;;
49834;SDS011;35729;52.090;13.162;2023-05-10T07:35:31;3.58;;;2.58;;
49834;SDS011;35729;52.090;13.162;2023-05-10T07:37:59;7.50;;;3.05;;
49834;SDS011;35729;52.090;13.162;2023-05-10T07:40:28;5.18;;;2.67;;
49834;SDS011;35729;52.090;13.162;2023-05-10T07:42:56;5.38;;;2.63;;
49834;SDS011;35729;52.090;13.162;2023-05-10T07:45:26;3.05;;;2.70;;
49834;SDS011;35729;52.090;13.162;2023-05-10T07:47:55;5.88;;;2.80;;
49834;SDS011;35729;52.090;13.162;2023-05-10T07:50:26;3.40;;;2.45;;
49834;SDS011;35729;52.090;13.162;2023-05-10T07:52:55;2.85;;;2.50;;
49834;SDS011;35729;52.090;13.162;2023-05-10T07:55:23;5.22;;;2.17;;
49834;SDS011;35729;52.090;13.162;2023-05-10T07:57:52;3.08;;;2.42;;
49834;SDS011;35729;52.090;13.162;2023-05-10T08:00:20;3.45;;;2.30;;
49834;SDS011;35729;52.090;13.162;2023-05-10T08:02:49;4.63;;;2.97;;
49834;SDS011;35729;52.090;13.162;2023-05-10T08:05:17;6.72;;;2.47;;
49834;SDS011;35729;52.090;13.162;2023-05-10T08:07:49;3.05;;;2.15;;
49834;SDS011;35729;52.090;13.162;2023-05-10T08:10:17;3.40;;;2.30;;
49834;SDS011;35729;52.090;13.162;2023-05-10T08:12:45;6.80;;;2.85;;
49834;SDS011;35729;52.090;13.162;2023-05-10T08:15:26;4.57;;;2.92;;
49834;SDS011;35729;52.090;13.162;2023-05-10T08:18:01;4.53;;;2.58;;
49834;SDS011;35729;52.090;13.162;2023-05-10T08:20:29;3.88;;;2.60;;
49834;SDS011;35729;52.090;13.162;2023-05-10T08:23:00;4.38;;;2.42;;
49834;SDS011;35729;52.090;13.162;2023-05-10T08:25:29;4.20;;;2.65;;
49834;SDS011;35729;52.090;13.162;2023-05-10T08:27:57;4.07;;;3.00;;
49834;SDS011;35729;52.090;13.162;2023-05-10T08:30:26;5.05;;;2.63;;
49834;SDS011;35729;52.090;13.162;2023-05-10T08:32:54;4.15;;;2.85;;
49834;SDS011;35729;52.090;13.162;2023-05-10T08:35:23;5.50;;;2.33;;
49834;SDS011;35729;52.090;13.162;2023-05-10T08:37:52;2.85;;;2.17;;
49834;SDS011;35729;52.090;13.162;2023-05-10T08:40:23;4.72;;;2.63;;
49834;SDS011;35729;52.090;13.162;2023-05-10T08:42:55;4.47;;;2.38;;
49834;SDS011;35729;52.090;13.162;2023-05-10T08:45:26;3.95;;;2.30;;
49834;SDS011;35729;52.090;13.162;2023-05-10T08:48:00;2.60;;;2.40;;
49834;SDS011;35729;52.090;13.162;2023-05-10T08:50:30;6.20;;;2.55;;
49834;SDS011;35729;52.090;13.162;2023-05-10T08:53:00;2.90;;;2.28;;
49834;SDS011;35729;52.090;13.162;2023-05-10T08:55:34;6.75;;;2.28;;
49834;SDS011;35729;52.090;13.162;2023-05-10T08:58:04;5.30;;;2.50;;
49834;SDS011;35729;52.090;13.162;2023-05-10T09:00:32;4.07;;;2.55;;
49834;SDS011;35729;52.090;13.162;2023-05-10T09:03:02;4.35;;;2.13;;
49834;SDS011;35729;52.090;13.162;2023-05-10T09:05:32;4.15;;;2.10;;
49834;SDS011;35729;52.090;13.162;2023-05-10T09:08:01;6.13;;;2.30;;
49834;SDS011;35729;52.090;13.162;2023-05-10T09:10:29;4.38;;;2.20;;
49834;SDS011;35729;52.090;13.162;2023-05-10T09:13:01;4.65;;;2.10;;
49834;SDS011;35729;52.090;13.162;2023-05-10T09:15:30;5.22;;;3.17;;
49834;SDS011;35729;52.090;13.162;2023-05-10T09:17:59;4.38;;;2.05;;
49834;SDS011;35729;52.090;13.162;2023-05-10T09:20:28;6.20;;;3.72;;
49834;SDS011;35729;52.090;13.162;2023-05-10T09:22:56;8.52;;;5.97;;
49834;SDS011;35729;52.090;13.162;2023-05-10T09:25:25;11.23;;;7.38;;
49834;SDS011;35729;52.090;13.162;2023-05-10T09:27:53;12.55;;;6.43;;
49834;SDS011;35729;52.090;13.162;2023-05-10T09:30:26;18.73;;;9.52;;
49834;SDS011;35729;52.090;13.162;2023-05-10T09:32:56;5.47;;;3.22;;
49834;SDS011;35729;52.090;13.162;2023-05-10T09:35:26;7.32;;;4.43;;
49834;SDS011;35729;52.090;13.162;2023-05-10T09:37:57;3.88;;;2.60;;
49834;SDS011;35729;52.090;13.162;2023-05-10T09:40:28;8.25;;;3.38;;
49834;SDS011;35729;52.090;13.162;2023-05-10T09:42:58;3.25;;;2.35;;
49834;SDS011;35729;52.090;13.162;2023-05-10T09:45:31;4.53;;;2.40;;
49834;SDS011;35729;52.090;13.162;2023-05-10T09:48:01;3.47;;;2.33;;
49834;SDS011;35729;52.090;13.162;2023-05-10T09:50:30;7.10;;;3.53;;
49834;SDS011;35729;52.090;13.162;2023-05-10T09:53:00;4.38;;;2.72;;
49834;SDS011;35729;52.090;13.162;2023-05-10T09:55:38;4.32;;;2.88;;
49834;SDS011;35729;52.090;13.162;2023-05-10T09:58:09;6.28;;;3.13;;
49834;SDS011;35729;52.090;13.162;2023-05-10T10:00:42;6.80;;;2.72;;
49834;SDS011;35729;52.090;13.162;2023-05-10T10:03:13;4.63;;;2.97;;
49834;SDS011;35729;52.090;13.162;2023-05-10T10:05:42;3.67;;;2.70;;
49834;SDS011;35729;52.090;13.162;2023-05-10T10:08:12;4.78;;;2.38;;
49834;SDS011;35729;52.090;13.162;2023-05-10T10:10:42;5.40;;;2.50;;
49834;SDS011;35729;52.090;13.162;2023-05-10T10:13:11;3.47;;;2.17;;
49834;SDS011;35729;52.090;13.162;2023-05-10T10:15:49;2.55;;;2.20;;
49834;SDS011;35729;52.090;13.162;2023-05-10T10:18:24;4.43;;;2.40;;
49834;SDS011;35729;52.090;13.162;2023-05-10T10:20:53;3.40;;;2.25;;
49834;SDS011;35729;52.090;13.162;2023-05-10T10:23:23;3.47;;;2.22;;
49834;SDS011;35729;52.090;13.162;2023-05-10T10:25:52;3.92;;;2.30;;
49834;SDS011;35729;52.090;13.162;2023-05-10T10:28:24;7.00;;;2.38;;
49834;SDS011;35729;52.090;13.162;2023-05-10T10:31:11;2.30;;;1.90;;
49834;SDS011;35729;52.090;13.162;2023-05-10T10:33:56;4.75;;;2.55;;
49834;SDS011;35729;52.090;13.162;2023-05-10T10:38:59;10.13;;;2.42;;
49834;SDS011;35729;52.090;13.162;2023-05-10T10:41:32;5.05;;;2.55;;
49834;SDS011;35729;52.090;13.162;2023-05-10T10:47:02;3.45;;;2.67;;
49834;SDS011;35729;52.090;13.162;2023-05-10T10:49:37;4.65;;;2.20;;
49834;SDS011;35729;52.090;13.162;2023-05-10T10:52:12;2.92;;;2.20;;
49834;SDS011;35729;52.090;13.162;2023-05-10T10:54:51;2.25;;;2.05;;
49834;SDS011;35729;52.090;13.162;2023-05-10T10:57:21;5.28;;;2.40;;
49834;SDS011;35729;52.090;13.162;2023-05-10T10:59:51;3.13;;;2.08;;
49834;SDS011;35729;52.090;13.162;2023-05-10T11:02:36;4.40;;;2.20;;
49834;SDS011;35729;52.090;13.162;2023-05-10T11:05:23;2.80;;;2.50;;
49834;SDS011;35729;52.090;13.162;2023-05-10T11:08:18;5.70;;;2.10;;
49834;SDS011;35729;52.090;13.162;2023-05-10T11:11:01;4.80;;;2.60;;
49834;SDS011;35729;52.090;13.162;2023-05-10T11:13:32;3.50;;;2.70;;
49834;SDS011;35729;52.090;13.162;2023-05-10T11:16:12;3.72;;;2.50;;
49834;SDS011;35729;52.090;13.162;2023-05-10T11:21:32;3.33;;;2.50;;
49834;SDS011;35729;52.090;13.162;2023-05-10T11:24:02;2.65;;;2.30;;
49834;SDS011;35729;52.090;13.162;2023-05-10T11:26:41;2.60;;;2.20;;
49834;SDS011;35729;52.090;13.162;2023-05-10T11:29:10;4.00;;;2.10;;
49834;SDS011;35729;52.090;13.162;2023-05-10T11:31:44;4.70;;;2.97;;
49834;SDS011;35729;52.090;13.162;2023-05-10T11:34:25;4.83;;;2.97;;
49834;SDS011;35729;52.090;13.162;2023-05-10T11:36:55;3.45;;;2.15;;
49834;SDS011;35729;52.090;13.162;2023-05-10T11:39:25;2.47;;;2.13;;
49834;SDS011;35729;52.090;13.162;2023-05-10T11:41:54;3.78;;;2.42;;
49834;SDS011;35729;52.090;13.162;2023-05-10T11:44:24;2.10;;;1.90;;
49834;SDS011;35729;52.090;13.162;2023-05-10T11:46:57;5.65;;;2.40;;
49834;SDS011;35729;52.090;13.162;2023-05-10T11:49:29;3.60;;;2.50;;
49834;SDS011;35729;52.090;13.162;2023-05-10T11:52:06;4.75;;;2.17;;
49834;SDS011;35729;52.090;13.162;2023-05-10T11:54:36;4.18;;;2.60;;
49834;SDS011;35729;52.090;13.162;2023-05-10T11:57:05;2.58;;;2.22;;
49834;SDS011;35729;52.090;13.162;2023-05-10T11:59:33;2.88;;;2.08;;
49834;SDS011;35729;52.090;13.162;2023-05-10T12:02:01;2.53;;;1.90;;
49834;SDS011;35729;52.090;13.162;2023-05-10T12:04:33;2.95;;;2.03;;
49834;SDS011;35729;52.090;13.162;2023-05-10T12:07:01;4.63;;;2.05;;
49834;SDS011;35729;52.090;13.162;2023-05-10T12:09:30;3.38;;;1.60;;
49834;SDS011;35729;52.090;13.162;2023-05-10T12:11:59;4.70;;;2.22;;
49834;SDS011;35729;52.090;13.162;2023-05-10T12:14:27;5.07;;;2.15;;
49834;SDS011;35729;52.090;13.162;2023-05-10T12:16:58;4.57;;;2.38;;
49834;SDS011;35729;52.090;13.162;2023-05-10T12:19:26;4.00;;;2.15;;
49834;SDS011;35729;52.090;13.162;2023-05-10T12:21:57;3.60;;;2.60;;
49834;SDS011;35729;52.090;13.162;2023-05-10T12:24:26;2.30;;;2.10;;
49834;SDS011;35729;52.090;13.162;2023-05-10T12:26:54;2.95;;;2.00;;
49834;SDS011;35729;52.090;13.162;2023-05-10T12:29:23;6.43;;;2.85;;
49834;SDS011;35729;52.090;13.162;2023-05-10T12:31:52;4.95;;;2.60;;
49834;SDS011;35729;52.090;13.162;2023-05-10T12:34:25;2.67;;;2.28;;
49834;SDS011;35729;52.090;13.162;2023-05-10T12:36:54;2.70;;;2.20;;
49834;SDS011;35729;52.090;13.162;2023-05-10T12:39:26;4.05;;;2.30;;
49834;SDS011;35729;52.090;13.162;2023-05-10T12:42:06;4.07;;;2.42;;
49834;SDS011;35729;52.090;13.162;2023-05-10T12:44:34;4.00;;;1.90;;
49834;SDS011;35729;52.090;13.162;2023-05-10T12:47:03;3.55;;;2.05;;
49834;SDS011;35729;52.090;13.162;2023-05-10T12:49:31;4.38;;;2.30;;
49834;SDS011;35729;52.090;13.162;2023-05-10T12:52:03;2.47;;;2.17;;
49834;SDS011;35729;52.090;13.162;2023-05-10T12:54:31;4.18;;;2.00;;
49834;SDS011;35729;52.090;13.162;2023-05-10T12:57:00;4.15;;;2.25;;
49834;SDS011;35729;52.090;13.162;2023-05-10T12:59:28;4.68;;;2.47;;
49834;SDS011;35729;52.090;13.162;2023-05-10T13:01:56;5.35;;;2.58;;
49834;SDS011;35729;52.090;13.162;2023-05-10T13:04:25;7.68;;;4.20;;
49834;SDS011;35729;52.090;13.162;2023-05-10T13:06:53;10.48;;;6.60;;
49834;SDS011;35729;52.090;13.162;2023-05-10T13:09:26;4.35;;;2.38;;
49834;SDS011;35729;52.090;13.162;2023-05-10T13:11:55;3.65;;;2.83;;
49834;SDS011;35729;52.090;13.162;2023-05-10T13:14:23;4.10;;;2.63;;
49834;SDS011;35729;52.090;13.162;2023-05-10T13:16:52;4.78;;;2.30;;
49834;SDS011;35729;52.090;13.162;2023-05-10T13:19:21;3.47;;;2.17;;
49834;SDS011;35729;52.090;13.162;2023-05-10T13:21:49;4.68;;;2.38;;
49834;SDS011;35729;52.090;13.162;2023-05-10T13:24:18;3.20;;;2.20;;
49834;SDS011;35729;52.090;13.162;2023-05-10T13:26:49;3.38;;;2.28;;
49834;SDS011;35729;52.090;13.162;2023-05-10T13:29:17;4.85;;;2.33;;
49834;SDS011;35729;52.090;13.162;2023-05-10T13:31:47;3.15;;;2.20;;
49834;SDS011;35729;52.090;13.162;2023-05-10T13:34:16;3.05;;;2.35;;
49834;SDS011;35729;52.090;13.162;2023-05-10T13:36:45;5.47;;;2.75;;
49834;SDS011;35729;52.090;13.162;2023-05-10T13:39:14;5.57;;;2.53;;
49834;SDS011;35729;52.090;13.162;2023-05-10T13:41:42;3.15;;;2.58;;
49834;SDS011;35729;52.090;13.162;2023-05-10T13:44:14;4.88;;;2.70;;
49834;SDS011;35729;52.090;13.162;2023-05-10T13:46:43;3.28;;;2.50;;
49834;SDS011;35729;52.090;13.162;2023-05-10T13:49:11;4.40;;;2.47;;
49834;SDS011;35729;52.090;13.162;2023-05-10T13:51:40;4.32;;;2.63;;
49834;SDS011;35729;52.090;13.162;2023-05-10T13:54:08;6.22;;;2.40;;
49834;SDS011;35729;52.090;13.162;2023-05-10T13:56:37;4.18;;;3.30;;
49834;SDS011;35729;52.090;13.162;2023-05-10T13:59:05;4.13;;;3.13;;
49834;SDS011;35729;52.090;13.162;2023-05-10T14:01:37;8.27;;;3.47;;
49834;SDS011;35729;52.090;13.162;2023-05-10T14:04:06;5.50;;;3.72;;
49834;SDS011;35729;52.090;13.162;2023-05-10T14:06:35;5.50;;;3.13;;
49834;SDS011;35729;52.090;13.162;2023-05-10T14:09:04;5.10;;;3.40;;
49834;SDS011;35729;52.090;13.162;2023-05-10T14:11:32;6.10;;;3.35;;
49834;SDS011;35729;52.090;13.162;2023-05-10T14:14:01;3.92;;;3.05;;
49834;SDS011;35729;52.090;13.162;2023-05-10T14:16:29;4.53;;;3.67;;
49834;SDS011;35729;52.090;13.162;2023-05-10T14:19:00;5.25;;;3.80;;
49834;SDS011;35729;52.090;13.162;2023-05-10T14:21:29;5.28;;;3.70;;
49834;SDS011;35729;52.090;13.162;2023-05-10T14:23:58;6.43;;;4.30;;
49834;SDS011;35729;52.090;13.162;2023-05-10T14:26:26;5.60;;;3.88;;
49834;SDS011;35729;52.090;13.162;2023-05-10T14:28:55;4.38;;;3.97;;
49834;SDS011;35729;52.090;13.162;2023-05-10T14:31:24;5.13;;;3.85;;
49834;SDS011;35729;52.090;13.162;2023-05-10T14:33:52;5.47;;;3.88;;
49834;SDS011;35729;52.090;13.162;2023-05-10T14:36:23;6.20;;;4.32;;
49834;SDS011;35729;52.090;13.162;2023-05-10T14:38:52;6.18;;;4.15;;
49834;SDS011;35729;52.090;13.162;2023-05-10T14:41:20;6.95;;;4.53;;
49834;SDS011;35729;52.090;13.162;2023-05-10T14:43:49;5.50;;;4.38;;
49834;SDS011;35729;52.090;13.162;2023-05-10T14:46:18;7.47;;;4.55;;
49834;SDS011;35729;52.090;13.162;2023-05-10T14:48:46;4.78;;;4.00;;
49834;SDS011;35729;52.090;13.162;2023-05-10T14:51:15;5.85;;;4.18;;
49834;SDS011;35729;52.090;13.162;2023-05-10T14:53:49;6.05;;;3.80;;
49834;SDS011;35729;52.090;13.162;2023-05-10T14:56:18;6.63;;;3.50;;
49834;SDS011;35729;52.090;13.162;2023-05-10T14:58:46;5.82;;;3.40;;
49834;SDS011;35729;52.090;13.162;2023-05-10T15:01:15;4.78;;;3.78;;
49834;SDS011;35729;52.090;13.162;2023-05-10T15:03:44;6.97;;;3.83;;
49834;SDS011;35729;52.090;13.162;2023-05-10T15:06:13;8.25;;;3.95;;
49834;SDS011;35729;52.090;13.162;2023-05-10T15:08:42;3.80;;;3.40;;